Amberley current weather conditions

sailwx.info

Wind from 170 at 7 knots

Air temperature 20.0° C
Dewpoint 3.0° C

Last reported at 2015-Jul-03 03:30 UTC.
Time now 2015-Jul-03 06:13 UTC

Location: S 27°38' E 152°43'.
View on Google Maps.

See reports from other nearby stations

  
Tides and Currents Weather Stations Pressure Air Temp Water Temp Dewpoint Dewpoint Depression Visibility Wind Speed Wind Dir Waves Ship Positions
date/time (UTC)wind fromknots sea level pressurealtimeterstation pressurevisibilityair tempwater tempwave heightnotes
2015-Jul-03 03:30 170 7 20.0
2015-Jul-03 03:00 160 8 19.0
2015-Jul-03 02:30 150 7 20.0
2015-Jul-03 02:00 180 8 18.0
2015-Jul-03 01:30 180 8 18.0
2015-Jul-03 01:00 170 11 17.0
2015-Jul-03 00:30 200 6 15.0
2015-Jul-03 00:00 210 6 14.0
2015-Jul-02 23:30 290 5 12.0
2015-Jul-02 23:00 10.0
2015-Jul-02 22:30 8.0
2015-Jul-02 22:00 5.0
2015-Jul-02 21:30 2.0
2015-Jul-02 21:00 220 5 -0.0
2015-Jul-02 20:30 210 2 -0.0
2015-Jul-02 20:00 210 2 -0.0
2015-Jul-02 19:30 190 1 5.4-0.0
2015-Jul-02 19:00 190 1 5.4 1.0
2015-Jul-02 18:30 5.4 1.0
2015-Jul-02 18:00 5.4 1.0
2015-Jul-02 17:30 190 2 5.4 1.0
2015-Jul-02 17:00 190 4 5.4 2.0
2015-Jul-02 16:30 160 2 5.4 2.0
2015-Jul-02 16:00 210 2 5.4 2.0
2015-Jul-02 15:30 200 5 5.4 3.0
2015-Jul-02 15:00 290 3 5.4 5.0
2015-Jul-02 14:30 320 5 5.4 5.0
2015-Jul-02 14:00 330 3 5.4 6.0
2015-Jul-02 13:30 240 4 5.4 5.0
2015-Jul-02 13:00 230 2 5.4 5.0
2015-Jul-02 12:30 5.4 7.0
2015-Jul-02 12:00 310 6 5.4 7.0
2015-Jul-02 11:30 280 5 9.0
2015-Jul-02 11:00 330 9 8.0
2015-Jul-02 10:30 330 7 9.0
2015-Jul-02 10:00 330 8 9.0
2015-Jul-02 09:30 350 4 11.0
2015-Jul-02 09:00 310 7 5.410.0
2015-Jul-02 08:00 320 9 12.0
2015-Jul-02 07:30 290 8 5.413.0
2015-Jul-02 07:00 290 7 15.0
2015-Jul-02 06:30 290 9 16.0
2015-Jul-02 06:00 280 11 17.0
2015-Jul-02 05:30 280 13 19.0
2015-Jul-02 05:00 280 14 20.0
2015-Jul-02 04:30 270 13 20.0
2015-Jul-02 04:00 270 13 20.0
2015-Jul-02 03:30 290 12 19.0
2015-Jul-02 03:00 290 14 19.0
2015-Jul-02 02:30 290 14 5.419.0
2015-Jul-02 02:00 260 11 19.0
2015-Jul-02 01:30 270 9 19.0
2015-Jul-02 01:00 260 9 19.0
2015-Jul-02 00:30 280 8 18.0
2015-Jul-02 00:00 280 6 5.417.0
2015-Jul-01 23:30 290 5 5.416.0
2015-Jul-01 23:00 210 1 5.414.0
2015-Jul-01 22:30 5.412.0
2015-Jul-01 22:00 8.0
2015-Jul-01 21:30 200 4 7.0
2015-Jul-01 21:00 5.4 5.0 Shallow fog.
2015-Jul-01 20:30 210 4 5.4 5.0 Shallow fog.
2015-Jul-01 20:00 0.2 6.0 Fog.
2015-Jul-01 19:30 0.1 5.0
2015-Jul-01 19:10 0.8 6.0
2015-Jul-01 19:07 1.9 6.0
2015-Jul-01 19:00 5.4 6.0
2015-Jul-01 18:55 5.4 6.0
2015-Jul-01 18:34 2.7 6.0
2015-Jul-01 18:08 5.4 7.0
2015-Jul-01 18:00 4.9 7.0
2015-Jul-01 17:30 0.6 7.0
2015-Jul-01 17:05 2.7 7.0
2015-Jul-01 17:00 5.4 7.0
2015-Jul-01 16:30 190 4 5.4 8.0
2015-Jul-01 16:00 190 4 5.4 8.0
2015-Jul-01 15:30 5.4 9.0
2015-Jul-01 15:00 230 2 5.4 9.0
2015-Jul-01 14:30 230 3 5.4 9.0
2015-Jul-01 14:00 300 5 5.410.0
2015-Jul-01 13:30 5.4 9.0
2015-Jul-01 13:00 290 4 5.410.0
2015-Jul-01 12:30 310 4 5.411.0
2015-Jul-01 12:00 320 2 5.411.0
2015-Jul-01 11:30 290 3 5.412.0
2015-Jul-01 11:00 030 4 5.412.0
2015-Jul-01 10:30 280 4 5.413.0
2015-Jul-01 10:00 310 5 15.0
2015-Jul-01 09:30 260 7 15.0
2015-Jul-01 09:00 260 6 17.0
2015-Jul-01 08:30 290 9 17.0
2015-Jul-01 08:00 310 8 5.417.0
2015-Jul-01 07:30 280 8 19.0
2015-Jul-01 07:00 300 2 21.0
2015-Jul-01 06:30 010 3 22.0
2015-Jul-01 06:00 030 6 22.0